Time;durP1;ratioP1;P1;durP2;ratioP2;P2;SDS_P1;SDS_P2;PMS_P1;PMS_P2;Temp;Humidity;BMP_temperature;BMP_pressure;BME280_temperature;BME280_humidity;BME280_pressure;Samples;Min_cycle;Max_cycle;Signal;HPM_P1;HPM_P2
2023/10/09 00:01:09;;;;;;;6.63;2.87;;;3.60;99.90;2.60;100921;;;;571972;247;24083;-79
2023/10/09 00:03:32;;;;;;;3.33;2.80;;;3.60;99.90;2.70;100910;;;;581430;246;25205;-77
2023/10/09 00:06:02;;;;;;;5.97;2.90;;;3.60;99.90;2.70;100899;;;;572591;247;24126;-78
2023/10/09 00:08:31;;;;;;;3.40;2.60;;;3.70;99.90;2.80;100898;;;;573006;245;24113;-79
2023/10/09 00:11:16;;;;;;;5.30;3.00;;;3.70;99.90;2.90;100893;;;;572285;247;24088;-79
2023/10/09 00:13:52;;;;;;;2.73;2.20;;;3.90;99.90;3.00;100882;;;;572494;247;25117;-78
2023/10/09 00:16:47;;;;;;;1.90;1.70;;;3.90;99.90;3.10;100876;;;;581827;246;24086;-78
2023/10/09 00:18:47;;;;;;;3.57;2.93;;;4.00;99.90;3.10;100867;;;;570371;247;24124;-78
2023/10/09 00:21:20;;;;;;;3.83;2.20;;;4.00;99.90;3.20;100862;;;;572031;247;24108;-77
2023/10/09 00:23:52;;;;;;;6.70;2.80;;;4.10;99.90;3.20;100869;;;;581580;247;24116;-78
2023/10/09 00:26:23;;;;;;;3.93;1.90;;;4.10;99.90;3.30;100873;;;;572208;247;24129;-78
2023/10/09 00:28:51;;;;;;;2.87;1.93;;;4.20;99.90;3.30;100874;;;;572467;247;24087;-78
2023/10/09 00:31:40;;;;;;;3.20;2.17;;;4.20;99.90;3.40;100868;;;;572377;247;24083;-79
2023/10/09 00:33:46;;;;;;;3.10;1.97;;;4.30;99.90;3.40;100876;;;;571232;247;24099;-78
2023/10/09 00:36:19;;;;;;;2.43;1.80;;;4.30;99.90;3.40;100867;;;;572470;247;24145;-78
2023/10/09 00:38:49;;;;;;;2.00;1.90;;;4.40;99.90;3.50;100863;;;;572262;247;24079;-78
2023/10/09 00:41:19;;;;;;;2.47;2.20;;;4.40;99.90;3.50;100864;;;;572392;247;24139;-78
2023/10/09 00:43:43;;;;;;;2.83;2.10;;;4.40;99.90;3.60;100873;;;;571867;247;24090;-78
2023/10/09 00:46:43;;;;;;;2.87;1.80;;;4.50;99.90;3.60;100868;;;;581222;247;24109;-78
2023/10/09 00:48:42;;;;;;;3.10;1.70;;;4.50;99.90;3.60;100862;;;;570907;246;24179;-79
2023/10/09 00:51:24;;;;;;;3.40;1.90;;;4.60;99.90;3.70;100872;;;;573349;246;24125;-79
2023/10/09 00:53:53;;;;;;;3.70;2.00;;;4.60;99.90;3.70;100865;;;;572717;247;24147;-79
2023/10/09 00:59:20;;;;;;;1.77;1.47;;;4.60;99.90;3.70;100860;;;;583647;246;24068;-78
2023/10/09 01:01:34;;;;;;;2.40;1.57;;;4.70;99.90;3.80;100858;;;;572195;247;24171;-78
2023/10/09 01:03:59;;;;;;;2.70;1.80;;;4.70;99.90;3.80;100863;;;;572873;247;24116;-79
2023/10/09 01:06:28;;;;;;;4.23;1.70;;;4.70;99.90;3.80;100864;;;;572706;247;24083;-78
2023/10/09 01:09:08;;;;;;;1.63;1.53;;;4.70;99.90;3.80;100859;;;;572477;247;25287;-78
2023/10/09 01:11:29;;;;;;;2.77;1.70;;;4.70;99.90;3.80;100868;;;;571817;247;24090;-78
2023/10/09 01:16:23;;;;;;;2.63;1.90;;;4.70;99.90;3.90;100862;;;;572721;247;24075;-78
2023/10/09 01:18:51;;;;;;;3.03;1.70;;;4.80;99.90;3.90;100859;;;;573028;247;25157;-79
2023/10/09 01:21:23;;;;;;;3.50;2.20;;;4.80;99.90;3.90;100855;;;;573078;247;24113;-78
2023/10/09 01:24:03;;;;;;;1.43;1.33;;;4.80;99.90;3.90;100854;;;;572914;247;24101;-77
2023/10/09 01:26:32;;;;;;;1.50;1.40;;;4.80;99.90;3.90;100863;;;;571899;247;25290;-78
2023/10/09 01:28:57;;;;;;;2.90;1.90;;;4.80;99.90;3.90;100856;;;;571853;247;24099;-78
2023/10/09 01:31:25;;;;;;;1.80;1.47;;;4.80;99.90;3.90;100861;;;;572036;247;24465;-78
2023/10/09 01:33:53;;;;;;;1.57;1.37;;;4.80;99.90;3.90;100865;;;;572329;247;24083;-78
2023/10/09 01:36:19;;;;;;;1.77;1.50;;;4.80;99.90;3.90;100865;;;;571958;247;24090;-78
2023/10/09 01:38:48;;;;;;;1.43;1.33;;;4.80;99.90;3.90;100864;;;;581085;242;24091;-78
2023/10/09 01:41:19;;;;;;;1.40;1.30;;;4.90;99.90;4.00;100860;;;;572420;247;24142;-78
2023/10/09 01:43:44;;;;;;;3.67;1.90;;;4.90;99.90;4.00;100857;;;;572263;247;24130;-78
2023/10/09 01:46:11;;;;;;;2.77;1.80;;;4.90;99.90;4.00;100862;;;;581662;247;24096;-77
2023/10/09 01:48:39;;;;;;;2.60;1.63;;;4.90;99.90;4.00;100849;;;;572435;247;24099;-77
2023/10/09 01:51:08;;;;;;;2.80;1.40;;;4.90;99.90;4.00;100844;;;;572436;247;24097;-78
2023/10/09 01:53:38;;;;;;;1.60;1.27;;;4.90;99.90;4.00;100838;;;;567751;246;35256;-78
2023/10/09 01:56:17;;;;;;;2.10;1.30;;;4.90;99.90;4.00;100833;;;;572048;247;24107;-79
2023/10/09 01:58:46;;;;;;;3.65;1.52;;;4.90;99.90;4.00;100825;;;;567672;244;35188;-78
2023/10/09 02:01:13;;;;;;;1.20;1.03;;;4.90;99.90;4.00;100826;;;;573404;246;24078;-79
2023/10/09 02:03:42;;;;;;;1.47;0.90;;;4.90;99.90;4.00;100834;;;;573087;247;24191;-79
2023/10/09 02:06:26;;;;;;;1.43;1.20;;;4.90;99.90;4.00;100830;;;;572797;247;24097;-78
2023/10/09 02:08:49;;;;;;;1.07;0.90;;;4.90;99.90;4.00;100833;;;;572471;247;24117;-78
2023/10/09 02:11:24;;;;;;;1.40;1.13;;;4.90;99.90;4.00;100834;;;;572502;247;24091;-79
2023/10/09 02:13:53;;;;;;;2.00;1.03;;;4.90;99.90;4.00;100836;;;;572709;247;24098;-79
2023/10/09 02:16:15;;;;;;;3.47;1.20;;;4.90;99.90;4.00;100830;;;;567744;247;35363;-78
2023/10/09 02:18:58;;;;;;;3.17;1.37;;;4.80;99.90;3.90;100828;;;;572640;247;24084;-78
2023/10/09 02:21:40;;;;;;;1.20;0.93;;;4.90;99.90;3.90;100812;;;;572511;247;24101;-79
2023/10/09 02:24:12;;;;;;;3.17;1.27;;;4.80;99.90;3.80;100811;;;;581500;247;24078;-77
2023/10/09 02:29:20;;;;;;;3.27;1.23;;;4.80;99.90;3.80;100789;;;;572415;247;24087;-78
2023/10/09 02:31:47;;;;;;;2.63;1.40;;;4.80;99.90;3.80;100792;;;;572189;247;24155;-77
2023/10/09 02:34:15;;;;;;;1.57;1.23;;;4.70;99.90;3.80;100788;;;;581390;247;24086;-77
2023/10/09 02:36:49;;;;;;;4.03;1.23;;;4.70;99.90;3.80;100788;;;;571914;247;24106;-77
2023/10/09 02:39:23;;;;;;;4.33;1.43;;;4.70;99.90;3.70;100789;;;;572134;247;24106;-77
2023/10/09 02:41:54;;;;;;;2.57;1.30;;;4.60;99.90;3.70;100784;;;;581606;247;24117;-78
2023/10/09 02:44:24;;;;;;;1.73;1.47;;;4.70;99.90;3.70;100797;;;;572671;247;24090;-78
2023/10/09 02:46:47;;;;;;;1.83;1.30;;;4.70;99.90;3.70;100783;;;;572269;247;24091;-79
2023/10/09 02:49:15;;;;;;;1.93;1.43;;;4.60;99.90;3.70;100769;;;;572538;247;24167;-79
2023/10/09 02:51:42;;;;;;;2.27;1.37;;;4.60;99.90;3.70;100773;;;;572459;247;24090;-77
2023/10/09 02:54:27;;;;;;;1.67;1.43;;;4.60;99.90;3.70;100773;;;;572169;247;24135;-79
2023/10/09 02:56:57;;;;;;;2.13;1.20;;;4.60;99.90;3.70;100776;;;;571967;247;24166;-78
2023/10/09 02:59:24;;;;;;;1.30;1.20;;;4.70;99.90;3.80;100776;;;;581125;247;24087;-78
2023/10/09 03:01:52;;;;;;;1.57;1.27;;;4.60;99.90;3.70;100763;;;;578282;247;24091;-78
2023/10/09 03:04:20;;;;;;;2.27;1.57;;;4.70;99.90;3.70;100756;;;;581079;247;24091;-78
2023/10/09 03:06:50;;;;;;;1.77;1.20;;;4.70;99.90;3.70;100762;;;;572275;247;24165;-78
2023/10/09 03:09:21;;;;;;;2.90;0.93;;;4.70;99.90;3.70;100757;;;;567121;247;35226;-80
2023/10/09 03:11:47;;;;;;;0.50;0.50;;;4.60;99.90;3.70;100762;;;;582732;245;24127;-78
2023/10/09 03:14:20;;;;;;;1.50;0.90;;;4.70;99.90;3.70;100756;;;;573883;246;24095;-78
2023/10/09 03:16:43;;;;;;;1.73;1.10;;;4.60;99.90;3.70;100755;;;;581975;246;24095;-78
2023/10/09 03:19:11;;;;;;;1.50;1.40;;;4.60;99.90;3.60;100741;;;;573315;247;24078;-77
2023/10/09 03:21:38;;;;;;;1.40;1.30;;;4.60;99.90;3.60;100741;;;;573060;247;24127;-77
2023/10/09 03:24:07;;;;;;;2.50;1.37;;;4.50;99.90;3.50;100729;;;;572836;247;24075;-77
2023/10/09 03:26:37;;;;;;;1.83;1.50;;;4.50;99.90;3.50;100727;;;;572942;247;24176;-78
2023/10/09 03:29:06;;;;;;;1.67;1.40;;;4.40;99.90;3.40;100730;;;;572325;247;24098;-78
2023/10/09 03:31:33;;;;;;;1.83;1.60;;;4.40;99.90;3.40;100724;;;;572336;247;24085;-78
2023/10/09 03:34:02;;;;;;;1.83;1.50;;;4.30;99.90;3.30;100721;;;;572290;247;24079;-78
2023/10/09 03:36:30;;;;;;;2.17;1.03;;;4.20;99.90;3.30;100714;;;;581544;247;25123;-78
2023/10/09 03:38:57;;;;;;;1.60;1.50;;;4.20;99.90;3.20;100705;;;;572365;247;24123;-78
2023/10/09 03:41:29;;;;;;;1.90;1.37;;;4.20;99.90;3.20;100711;;;;572266;247;24108;-80
2023/10/09 03:43:55;;;;;;;2.10;1.13;;;4.10;99.90;3.10;100714;;;;572742;247;24095;-78
2023/10/09 03:46:32;;;;;;;1.63;1.23;;;4.10;99.90;3.10;100714;;;;573033;247;24088;-77
2023/10/09 03:48:57;;;;;;;0.80;0.80;;;4.00;99.90;3.10;100713;;;;571733;247;24085;-78
2023/10/09 03:51:23;;;;;;;1.73;1.40;;;4.00;99.90;3.00;100723;;;;571846;247;25545;-78
2023/10/09 03:53:50;;;;;;;4.20;1.73;;;4.00;99.90;3.10;100728;;;;572222;247;24096;-78
2023/10/09 03:56:21;;;;;;;2.53;1.30;;;4.00;99.90;3.10;100722;;;;572488;247;24142;-78
2023/10/09 03:58:50;;;;;;;1.70;1.47;;;4.00;99.90;3.10;100733;;;;572613;247;24168;-78
2023/10/09 04:04:13;;;;;;;1.90;1.47;;;4.00;99.90;3.10;100727;;;;572308;247;24077;-78
2023/10/09 04:06:37;;;;;;;3.33;1.47;;;4.00;99.90;3.10;100727;;;;582112;246;24110;-78
2023/10/09 04:08:59;;;;;;;4.53;2.00;;;4.00;99.90;3.10;100721;;;;571887;247;24149;-78
2023/10/09 04:11:27;;;;;;;4.33;1.80;;;4.00;99.90;3.10;100722;;;;572355;247;24212;-77
2023/10/09 04:13:59;;;;;;;2.57;1.53;;;4.00;99.90;3.20;100715;;;;578672;247;24078;-78
2023/10/09 04:19:10;;;;;;;1.43;1.33;;;4.20;99.90;3.30;100716;;;;572066;247;24079;-78
2023/10/09 04:26:37;;;;;;;2.63;1.70;;;4.40;99.90;3.60;100708;;;;573889;247;24122;-78
2023/10/09 04:29:05;;;;;;;3.63;2.00;;;4.40;99.90;3.60;100716;;;;573650;246;24102;-78
2023/10/09 04:31:37;;;;;;;2.70;1.80;;;4.60;99.90;3.70;100701;;;;568153;247;35241;-78
2023/10/09 04:36:53;;;;;;;1.47;1.30;;;4.70;99.90;3.80;100697;;;;582202;246;24115;-77
2023/10/09 04:45:06;;;;;;;1.83;1.60;;;4.80;99.90;3.90;100687;;;;581884;246;24114;-78
2023/10/09 05:02:56;;;;;;;1.00;0.80;;;4.80;99.90;4.00;100671;;;;572810;247;24180;-78
2023/10/09 05:08:21;;;;;;;3.10;1.53;;;4.90;99.90;4.10;100668;;;;572767;243;24072;-77
2023/10/09 05:16:33;;;;;;;1.83;1.73;;;5.00;99.90;4.20;100680;;;;581200;247;24091;-77
2023/10/09 05:34:37;;;;;;;2.17;1.97;;;5.20;99.90;4.30;100653;;;;584091;244;24080;-78
2023/10/09 05:47:56;;;;;;;1.53;1.13;;;5.40;99.90;4.60;100648;;;;572953;247;24096;-78
2023/10/09 06:06:34;;;;;;;1.50;1.40;;;5.70;99.90;5.00;100644;;;;543357;255;24102;-78
2023/10/09 06:11:55;;;;;;;2.60;1.87;;;5.80;99.90;5.10;100638;;;;572196;247;24089;-78
2023/10/09 06:19:28;;;;;;;2.60;1.37;;;6.20;99.90;5.50;100649;;;;581477;247;24106;-77
2023/10/09 06:24:54;;;;;;;2.50;1.73;;;6.60;99.90;5.80;100653;;;;581555;246;24092;-77
2023/10/09 06:34:51;;;;;;;4.63;1.33;;;7.50;99.90;7.80;100663;;;;582707;246;25147;-79
2023/10/09 06:42:43;;;;;;;3.33;1.57;;;10.40;99.90;11.00;100689;;;;572334;247;24095;-79
2023/10/09 06:45:09;;;;;;;4.40;2.00;;;11.50;99.90;11.70;100689;;;;580711;245;24091;-78
2023/10/09 06:47:42;;;;;;;5.83;2.20;;;12.20;99.90;12.50;100688;;;;573806;246;24105;-78
2023/10/09 06:55:34;;;;;;;7.60;2.00;;;13.80;99.90;13.60;100682;;;;573389;247;24227;-79
2023/10/09 06:58:09;;;;;;;6.53;2.60;;;14.30;99.90;13.80;100687;;;;568336;247;38341;-79
2023/10/09 07:03:19;;;;;;;4.40;2.00;;;14.30;99.90;13.00;100695;;;;573137;247;24079;-78
2023/10/09 07:06:09;;;;;;;5.17;2.07;;;13.90;99.90;12.90;100692;;;;572990;247;24105;-78
2023/10/09 07:08:32;;;;;;;3.27;2.37;;;13.70;99.90;13.00;100692;;;;580043;243;24118;-78
2023/10/09 07:11:20;;;;;;;6.80;2.23;;;13.90;99.90;13.30;100689;;;;572720;247;24138;-78
2023/10/09 07:13:27;;;;;;;5.17;2.33;;;13.90;99.90;13.70;100699;;;;579927;247;24252;-78
2023/10/09 07:18:49;;;;;;;6.40;2.20;;;14.40;99.90;13.50;100697;;;;566986;248;24155;-78
2023/10/09 07:21:11;;;;;;;2.70;1.60;;;14.20;99.90;13.40;100695;;;;555958;253;24120;-79
2023/10/09 07:23:48;;;;;;;2.90;2.03;;;14.10;99.60;13.40;100696;;;;560312;247;24205;-78
2023/10/09 07:26:55;;;;;;;6.83;2.30;;;14.10;99.60;13.40;100706;;;;572572;247;24070;-79
2023/10/09 07:28:43;;;;;;;6.03;1.97;;;14.00;99.60;13.30;100698;;;;577081;247;24135;-78
2023/10/09 07:31:09;;;;;;;2.70;1.97;;;14.00;99.60;13.30;100704;;;;572632;247;24080;-79
2023/10/09 07:33:52;;;;;;;4.97;2.17;;;14.00;99.40;13.20;100701;;;;572670;247;24073;-79
2023/10/09 07:36:08;;;;;;;3.07;2.10;;;13.90;99.10;13.00;100688;;;;572381;247;24076;-79
2023/10/09 07:38:30;;;;;;;4.40;2.00;;;13.80;99.30;13.00;100706;;;;580912;247;24187;-78
2023/10/09 07:43:45;;;;;;;4.80;1.87;;;13.70;99.80;13.20;100695;;;;581608;247;24068;-79
2023/10/09 07:48:58;;;;;;;3.53;2.50;;;13.90;99.30;13.20;100694;;;;581608;246;24154;-78
2023/10/09 07:51:31;;;;;;;3.97;2.00;;;13.90;99.40;13.20;100703;;;;572245;245;24133;-80
2023/10/09 07:54:08;;;;;;;9.87;2.37;;;13.60;99.60;13.20;100700;;;;572483;247;24133;-77
2023/10/09 07:56:53;;;;;;;5.12;2.45;;;13.40;99.20;13.20;100705;;;;576686;245;35275;-79
2023/10/09 07:59:10;;;;;;;3.53;2.70;;;13.90;99.00;13.10;100706;;;;572175;246;24089;-79
2023/10/09 08:01:35;;;;;;;3.00;1.97;;;13.80;98.60;13.10;100705;;;;573555;247;24096;-79
2023/10/09 08:04:37;;;;;;;2.33;2.10;;;13.80;98.80;13.20;100708;;;;573482;246;24063;-79
2023/10/09 08:06:42;;;;;;;1.97;1.70;;;13.90;99.10;13.30;100702;;;;580350;247;24087;-80
2023/10/09 08:17:16;;;;;;;3.73;2.17;;;14.40;97.90;14.10;100691;;;;581349;247;24112;-79
2023/10/09 08:24:57;;;;;;;3.67;2.20;;;15.40;96.60;15.30;100676;;;;572496;247;24119;-79
2023/10/09 08:33:02;;;;;;;5.00;2.30;;;16.50;94.40;16.40;100666;;;;581867;247;24078;-79
2023/10/09 08:35:47;;;;;;;4.00;2.10;;;17.00;94.20;17.00;100662;;;;572831;247;24123;-78
2023/10/09 08:38:10;;;;;;;4.00;2.23;;;17.60;93.10;17.50;100668;;;;579949;247;24076;-79
2023/10/09 08:40:41;;;;;;;2.43;2.13;;;18.10;91.70;18.00;100654;;;;581563;247;24117;-78
2023/10/09 08:43:16;;;;;;;4.73;2.10;;;18.60;90.50;18.50;100654;;;;572615;247;24083;-78
2023/10/09 08:45:51;;;;;;;2.40;2.10;;;19.10;89.10;19.30;100655;;;;572756;247;24086;-81
2023/10/09 08:48:21;;;;;;;4.47;2.50;;;19.80;86.50;20.20;100662;;;;581401;247;24151;-80
2023/10/09 08:50:48;;;;;;;6.20;2.63;;;20.70;81.90;20.60;100662;;;;581239;247;25160;-80
2023/10/09 08:53:13;;;;;;;7.70;2.40;;;22.10;74.40;21.40;100667;;;;572228;247;24098;-79
2023/10/09 08:55:44;;;;;;;3.20;2.60;;;22.00;74.20;22.50;100678;;;;572182;247;24129;-79
2023/10/09 09:00:46;;;;;;;4.87;2.70;;;24.10;65.70;23.90;100676;;;;575812;247;24146;-80
2023/10/09 09:03:16;;;;;;;5.13;2.40;;;24.80;62.40;24.10;100674;;;;572702;246;24078;-81
2023/10/09 09:05:46;;;;;;;3.03;2.30;;;25.50;57.70;24.50;100680;;;;572454;247;23180;-81
2023/10/09 09:08:36;;;;;;;3.37;2.33;;;25.70;56.00;24.80;100687;;;;581618;242;23093;-81
2023/10/09 09:11:48;;;;;;;3.27;2.37;;;25.70;56.00;24.70;100686;;;;572770;246;24095;-80
2023/10/09 09:13:34;;;;;;;4.33;2.10;;;25.80;54.90;24.90;100686;;;;568410;247;23115;-79
2023/10/09 09:16:04;;;;;;;2.57;1.90;;;25.80;54.30;24.10;100695;;;;573027;247;24113;-81
2023/10/09 09:18:43;;;;;;;5.27;2.87;;;25.40;53.70;22.90;100686;;;;573082;247;23122;-80
2023/10/09 09:21:03;;;;;;;8.13;3.03;;;24.40;54.70;21.70;100684;;;;572593;247;24081;-80
2023/10/09 09:23:31;;;;;;;4.50;2.60;;;23.30;56.60;21.00;100694;;;;571809;247;24115;-80
2023/10/09 09:25:59;;;;;;;2.80;2.10;;;22.50;58.20;20.20;100690;;;;581393;246;24143;-81
2023/10/09 09:28:32;;;;;;;5.07;2.30;;;21.60;59.20;19.50;100678;;;;572935;247;24109;-80
2023/10/09 09:30:55;;;;;;;4.50;2.60;;;20.30;62.80;19.30;100673;;;;572865;246;24153;-81
2023/10/09 09:33:30;;;;;;;3.37;2.47;;;20.30;63.60;19.40;100679;;;;572028;247;24166;-80
2023/10/09 09:36:06;;;;;;;2.23;1.90;;;20.20;63.50;19.50;100685;;;;572806;247;24104;-79
2023/10/09 09:41:11;;;;;;;4.10;1.87;;;20.50;63.40;20.00;100684;;;;577356;246;23186;-79
2023/10/09 09:43:36;;;;;;;4.80;1.70;;;20.90;63.60;20.20;100684;;;;573006;247;25201;-79
2023/10/09 09:46:07;;;;;;;1.97;1.77;;;21.10;62.40;20.10;100679;;;;572762;247;24071;-81
2023/10/09 09:48:32;;;;;;;2.80;1.63;;;21.00;62.40;20.00;100678;;;;572831;247;24209;-80
2023/10/09 09:51:05;;;;;;;2.33;1.83;;;20.90;62.80;20.00;100675;;;;581428;247;24171;-80
2023/10/09 09:53:27;;;;;;;6.13;1.83;;;21.00;62.60;19.90;100676;;;;572411;247;24080;-80
2023/10/09 09:55:58;;;;;;;4.57;2.07;;;20.90;62.20;19.90;100675;;;;572135;247;24084;-80
2023/10/09 09:58:32;;;;;;;3.13;1.90;;;20.80;62.50;19.80;100670;;;;572554;247;24130;-80
2023/10/09 10:00:55;;;;;;;6.80;1.67;;;20.80;63.00;19.70;100677;;;;572607;247;23108;-81
2023/10/09 10:03:22;;;;;;;2.40;1.43;;;20.70;63.10;19.20;100662;;;;572225;244;24110;-81
2023/10/09 10:05:54;;;;;;;2.83;1.40;;;19.70;63.70;18.70;100658;;;;571960;249;24069;-80
2023/10/09 10:08:19;;;;;;;3.57;1.90;;;19.50;65.10;18.60;100658;;;;577298;247;24092;-80
2023/10/09 10:10:58;;;;;;;2.10;1.63;;;19.40;66.00;18.60;100658;;;;568105;247;26426;-80
2023/10/09 10:13:21;;;;;;;1.70;1.10;;;19.40;65.10;18.10;100659;;;;574826;244;24048;-81
2023/10/09 10:16:08;;;;;;;2.37;1.20;;;19.00;64.80;17.50;100655;;;;570411;247;24103;-80
2023/10/09 10:18:35;;;;;;;2.33;1.30;;;18.40;65.00;16.90;100652;;;;569193;247;24101;-80
2023/10/09 10:21:17;;;;;;;2.20;1.50;;;17.80;66.10;16.60;100657;;;;571482;246;24053;-80
2023/10/09 10:23:48;;;;;;;2.43;0.90;;;17.00;67.40;16.20;100656;;;;570297;246;24134;-80
2023/10/09 10:26:25;;;;;;;1.30;1.20;;;17.00;67.40;15.80;100660;;;;566618;250;24147;-80
2023/10/09 10:28:48;;;;;;;1.33;1.20;;;16.60;68.70;15.50;100648;;;;569751;251;24141;-80
2023/10/09 10:31:15;;;;;;;1.47;1.00;;;16.30;69.80;15.10;100652;;;;567249;247;24080;-81
2023/10/09 10:33:54;;;;;;;0.93;0.93;;;15.90;70.60;14.90;100657;;;;572496;247;24165;-81
2023/10/09 10:36:26;;;;;;;3.10;1.10;;;15.60;72.10;14.60;100650;;;;570722;249;24108;-80
2023/10/09 10:39:21;;;;;;;2.20;1.10;;;15.30;72.90;14.30;100641;;;;568270;249;24156;-80
2023/10/09 10:41:50;;;;;;;3.53;1.13;;;15.00;73.90;14.00;100648;;;;576251;247;24124;-78
2023/10/09 10:46:44;;;;;;;3.80;1.30;;;14.30;74.90;13.20;100648;;;;566382;249;24120;-79
2023/10/09 10:49:21;;;;;;;1.10;1.00;;;13.90;76.20;13.00;100649;;;;577447;247;24086;-79
2023/10/09 10:51:53;;;;;;;1.80;0.70;;;13.40;78.40;12.80;100647;;;;568717;249;24156;-80
2023/10/09 10:56:57;;;;;;;2.10;0.90;;;13.30;78.90;12.90;100640;;;;567986;249;24147;-79
2023/10/09 10:59:26;;;;;;;1.77;1.20;;;13.40;79.70;13.00;100638;;;;568430;249;24178;-79
2023/10/09 11:02:13;;;;;;;1.60;0.60;;;13.60;79.80;13.00;100641;;;;568846;249;24092;-80
2023/10/09 11:07:06;;;;;;;0.70;0.70;;;13.50;80.10;12.70;100620;;;;545634;258;24239;-79
2023/10/09 11:09:37;;;;;;;3.07;1.50;;;13.30;80.20;12.60;100621;;;;568182;249;24148;-78
2023/10/09 11:12:37;;;;;;;1.10;1.00;;;13.20;80.80;12.50;100618;;;;569119;249;24122;-79
2023/10/09 11:14:44;;;;;;;0.97;0.63;;;13.10;81.50;12.40;100616;;;;568994;249;24083;-79
2023/10/09 11:17:15;;;;;;;0.57;0.57;;;13.00;82.20;12.30;100604;;;;567946;249;24143;-79
2023/10/09 11:19:31;;;;;;;1.30;0.67;;;12.90;83.20;12.30;100598;;;;567142;249;24107;-78
2023/10/09 11:24:36;;;;;;;1.87;1.23;;;12.70;81.90;12.10;100600;;;;577874;245;24138;-78
2023/10/09 11:27:07;;;;;;;1.23;0.90;;;12.70;82.90;12.10;100596;;;;568732;249;24115;-80
2023/10/09 11:32:21;;;;;;;2.43;0.77;;;12.70;83.60;12.20;100596;;;;569313;248;24065;-80
2023/10/09 11:34:58;;;;;;;6.43;0.80;;;12.80;82.50;12.20;100588;;;;567607;249;24109;-81
2023/10/09 11:38:01;;;;;;;0.60;0.60;;;12.80;82.50;12.20;100570;;;;568566;249;24202;-80
2023/10/09 11:39:55;;;;;;;1.37;0.70;;;12.80;82.90;12.10;100576;;;;564563;249;38111;-79
2023/10/09 11:45:20;;;;;;;1.27;0.63;;;12.70;83.70;12.00;100567;;;;569010;249;24125;-79
2023/10/09 11:47:58;;;;;;;0.97;0.30;;;12.70;82.90;12.00;100564;;;;569274;249;24124;-80
2023/10/09 11:51:17;;;;;;;3.60;0.43;;;12.60;83.10;11.90;100555;;;;569390;249;24124;-79
2023/10/09 11:53:33;;;;;;;0.87;0.50;;;12.60;83.70;11.80;100557;;;;568846;248;24077;-79
2023/10/09 11:55:42;;;;;;;0.67;0.50;;;12.40;83.10;11.70;100556;;;;567461;249;24088;-79
2023/10/09 11:58:10;;;;;;;0.87;0.70;;;12.30;83.30;11.50;100544;;;;568599;248;24071;-79
2023/10/09 12:00:47;;;;;;;2.03;0.77;;;12.20;82.80;11.40;100535;;;;569505;247;24090;-79
2023/10/09 12:03:15;;;;;;;0.77;0.40;;;12.10;82.40;11.30;100536;;;;569129;249;24109;-79
2023/10/09 12:05:45;;;;;;;1.37;0.70;;;12.00;81.90;11.30;100531;;;;564521;249;35114;-79
2023/10/09 12:08:16;;;;;;;3.37;2.37;;;11.90;81.30;11.20;100529;;;;569092;249;24093;-81
2023/10/09 12:10:45;;;;;;;1.00;0.90;;;11.90;82.30;11.20;100529;;;;546817;258;25274;-79
2023/10/09 12:13:12;;;;;;;2.57;0.90;;;11.80;83.70;11.20;100527;;;;565829;249;24104;-79
2023/10/09 12:15:40;;;;;;;2.00;0.87;;;11.80;84.00;11.10;100530;;;;568553;249;24098;-82
2023/10/09 12:18:14;;;;;;;0.70;0.60;;;11.80;84.50;11.10;100534;;;;566933;249;24126;-80
2023/10/09 12:20:39;;;;;;;1.07;0.93;;;11.70;84.60;11.10;100534;;;;568227;249;24128;-80
2023/10/09 12:23:14;;;;;;;5.03;1.00;;;11.70;84.30;11.10;100524;;;;577257;247;24147;-80
2023/10/09 12:25:40;;;;;;;1.53;0.77;;;11.80;84.20;11.20;100535;;;;568190;249;24140;-79
2023/10/09 12:28:12;;;;;;;16.27;8.33;;;11.80;84.30;11.30;100534;;;;568645;248;24140;-78
2023/10/09 12:30:39;;;;;;;18.13;6.67;;;11.90;84.20;11.20;100541;;;;568916;249;24085;-80
2023/10/09 12:33:08;;;;;;;5.77;3.10;;;11.90;84.30;11.20;100527;;;;568441;249;24065;-80
2023/10/09 12:35:33;;;;;;;8.37;2.53;;;11.90;84.50;11.10;100538;;;;570491;249;24093;-79
2023/10/09 12:38:04;;;;;;;3.10;1.93;;;11.80;84.70;11.10;100538;;;;568548;249;24144;-80
2023/10/09 12:40:31;;;;;;;2.67;1.57;;;11.80;85.00;11.20;100527;;;;568017;249;24088;-80
2023/10/09 12:42:58;;;;;;;6.93;1.00;;;11.80;85.20;11.20;100520;;;;568846;247;24143;-82
2023/10/09 12:45:32;;;;;;;0.87;0.70;;;11.80;85.20;11.20;100540;;;;578830;242;24128;-80
2023/10/09 12:48:09;;;;;;;0.50;0.50;;;11.80;85.20;11.20;100533;;;;567359;248;24133;-80
2023/10/09 12:50:33;;;;;;;2.23;0.90;;;11.90;85.30;11.20;100539;;;;568808;249;24097;-80
2023/10/09 12:53:01;;;;;;;4.23;1.27;;;11.90;85.00;11.20;100534;;;;577598;247;24084;-80
2023/10/09 12:55:34;;;;;;;1.03;0.83;;;11.90;85.20;11.20;100537;;;;566686;249;24180;-80
2023/10/09 12:58:15;;;;;;;5.47;0.80;;;11.80;85.40;11.20;100539;;;;569223;249;24100;-81
2023/10/09 13:00:32;;;;;;;10.50;1.37;;;11.80;85.80;11.20;100531;;;;567222;249;24082;-80
2023/10/09 13:03:00;;;;;;;0.63;0.63;;;11.90;86.10;11.30;100535;;;;568397;248;24085;-79
2023/10/09 13:05:28;;;;;;;7.00;0.70;;;12.00;85.80;11.40;100526;;;;568107;249;24151;-79
2023/10/09 13:07:56;;;;;;;3.83;1.13;;;12.00;86.00;11.40;100519;;;;568732;249;24098;-79
2023/10/09 13:10:31;;;;;;;0.87;0.80;;;12.00;86.20;11.40;100526;;;;568639;249;24106;-79
2023/10/09 13:12:56;;;;;;;4.43;1.13;;;12.00;86.40;11.30;100536;;;;568697;249;24085;-79
2023/10/09 13:15:24;;;;;;;4.13;0.63;;;12.00;86.40;11.30;100529;;;;568702;249;25130;-79
2023/10/09 13:17:53;;;;;;;4.33;0.90;;;12.00;86.50;11.30;100524;;;;569028;249;24094;-79
2023/10/09 13:20:19;;;;;;;0.60;0.60;;;12.00;86.70;11.30;100529;;;;568624;249;25132;-81
2023/10/09 13:22:48;;;;;;;3.63;1.67;;;12.00;86.90;11.40;100528;;;;568093;249;24130;-79
2023/10/09 13:25:25;;;;;;;3.30;1.37;;;12.00;86.50;11.40;100536;;;;568447;249;24081;-79
2023/10/09 13:27:51;;;;;;;2.33;0.90;;;12.00;86.10;11.30;100526;;;;568550;249;24144;-79
2023/10/09 13:30:23;;;;;;;4.00;0.87;;;12.00;85.50;11.40;100524;;;;568572;249;24093;-80
2023/10/09 13:32:50;;;;;;;9.73;1.57;;;12.00;85.00;11.30;100527;;;;568526;248;24133;-80
2023/10/09 13:35:19;;;;;;;1.67;0.80;;;12.00;85.50;11.40;100526;;;;568686;249;24095;-79
2023/10/09 13:37:55;;;;;;;0.63;0.57;;;12.00;84.60;11.40;100526;;;;577516;247;24086;-80
2023/10/09 13:40:30;;;;;;;0.70;0.70;;;12.00;84.60;11.40;100514;;;;568824;249;24102;-80
2023/10/09 13:42:58;;;;;;;0.60;0.60;;;12.00;85.10;11.40;100519;;;;567244;249;24135;-80
2023/10/09 13:45:27;;;;;;;3.10;0.67;;;12.00;85.00;11.40;100516;;;;568869;249;24100;-78
2023/10/09 13:47:57;;;;;;;0.87;0.60;;;12.00;85.70;11.40;100515;;;;577500;247;24153;-79
2023/10/09 13:50:28;;;;;;;0.77;0.70;;;12.00;85.60;11.40;100520;;;;569005;249;24141;-79
2023/10/09 13:52:54;;;;;;;5.23;1.00;;;12.00;85.70;11.50;100516;;;;567661;249;24069;-79
2023/10/09 13:55:20;;;;;;;4.37;0.60;;;12.10;85.60;11.50;100516;;;;569459;248;24108;-78
2023/10/09 13:57:49;;;;;;;2.63;1.10;;;12.10;85.30;11.60;100512;;;;569832;249;24071;-79
2023/10/09 14:00:32;;;;;;;3.00;1.20;;;12.20;85.30;11.70;100515;;;;569578;249;24115;-79
2023/10/09 14:02:46;;;;;;;4.53;1.60;;;12.30;85.50;11.80;100511;;;;569308;249;24081;-78
2023/10/09 14:05:16;;;;;;;3.20;0.83;;;12.40;86.00;11.80;100516;;;;569147;249;24089;-79
2023/10/09 14:07:41;;;;;;;1.60;1.03;;;12.50;85.80;11.80;100528;;;;568515;249;24179;-79
2023/10/09 14:10:17;;;;;;;1.30;0.67;;;12.40;85.70;11.80;100512;;;;569016;249;24107;-80
2023/10/09 14:12:39;;;;;;;3.27;0.87;;;12.40;85.80;11.80;100505;;;;571562;246;24113;-80
2023/10/09 14:15:08;;;;;;;1.23;0.67;;;12.50;85.60;11.80;100512;;;;568835;249;24127;-79
2023/10/09 14:17:32;;;;;;;1.00;0.77;;;12.50;85.80;11.80;100501;;;;571030;249;24439;-80
2023/10/09 14:20:43;;;;;;;2.77;0.53;;;12.50;85.90;11.80;100507;;;;569472;249;24070;-78
2023/10/09 14:22:31;;;;;;;2.00;0.80;;;12.50;85.90;11.90;100497;;;;567271;249;24090;-79